sensor_id;sensor_type;location;lat;lon;timestamp;P1;durP1;ratioP1;P2;durP2;ratioP2
5465;SDS011;2755;50.728;7.108;2022-12-29T00:01:16;0.80;;;0.70;;
5465;SDS011;2755;50.728;7.108;2022-12-29T00:03:44;1.10;;;0.60;;
5465;SDS011;2755;50.728;7.108;2022-12-29T00:06:11;1.70;;;0.90;;
5465;SDS011;2755;50.728;7.108;2022-12-29T00:08:36;1.23;;;0.70;;
5465;SDS011;2755;50.728;7.108;2022-12-29T00:11:13;0.60;;;0.50;;
5465;SDS011;2755;50.728;7.108;2022-12-29T00:13:41;0.97;;;0.63;;
5465;SDS011;2755;50.728;7.108;2022-12-29T00:16:25;0.83;;;0.70;;
5465;SDS011;2755;50.728;7.108;2022-12-29T00:18:51;1.47;;;0.80;;
5465;SDS011;2755;50.728;7.108;2022-12-29T00:21:18;0.80;;;0.50;;
5465;SDS011;2755;50.728;7.108;2022-12-29T00:24:03;1.00;;;0.60;;
5465;SDS011;2755;50.728;7.108;2022-12-29T00:29:52;0.83;;;0.70;;
5465;SDS011;2755;50.728;7.108;2022-12-29T00:32:36;0.87;;;0.60;;
5465;SDS011;2755;50.728;7.108;2022-12-29T00:35:31;2.87;;;0.57;;
5465;SDS011;2755;50.728;7.108;2022-12-29T00:38:02;1.00;;;0.70;;
5465;SDS011;2755;50.728;7.108;2022-12-29T00:40:49;3.87;;;0.83;;
5465;SDS011;2755;50.728;7.108;2022-12-29T00:43:34;0.70;;;0.50;;
5465;SDS011;2755;50.728;7.108;2022-12-29T00:46:18;1.73;;;0.70;;
5465;SDS011;2755;50.728;7.108;2022-12-29T00:48:43;0.93;;;0.63;;
5465;SDS011;2755;50.728;7.108;2022-12-29T00:51:28;0.87;;;0.60;;
5465;SDS011;2755;50.728;7.108;2022-12-29T00:53:53;0.73;;;0.50;;
5465;SDS011;2755;50.728;7.108;2022-12-29T00:56:19;0.60;;;0.40;;
5465;SDS011;2755;50.728;7.108;2022-12-29T00:58:45;0.93;;;0.83;;
5465;SDS011;2755;50.728;7.108;2022-12-29T01:01:10;0.87;;;0.60;;
5465;SDS011;2755;50.728;7.108;2022-12-29T01:03:37;0.60;;;0.50;;
5465;SDS011;2755;50.728;7.108;2022-12-29T01:06:03;0.80;;;0.50;;
5465;SDS011;2755;50.728;7.108;2022-12-29T01:08:30;0.70;;;0.60;;
5465;SDS011;2755;50.728;7.108;2022-12-29T01:13:30;0.60;;;0.50;;
5465;SDS011;2755;50.728;7.108;2022-12-29T01:15:56;0.70;;;0.53;;
5465;SDS011;2755;50.728;7.108;2022-12-29T01:18:22;0.90;;;0.40;;
5465;SDS011;2755;50.728;7.108;2022-12-29T01:20:49;0.60;;;0.50;;
5465;SDS011;2755;50.728;7.108;2022-12-29T01:23:15;0.73;;;0.50;;
5465;SDS011;2755;50.728;7.108;2022-12-29T01:25:40;0.70;;;0.50;;
5465;SDS011;2755;50.728;7.108;2022-12-29T01:28:06;0.60;;;0.50;;
5465;SDS011;2755;50.728;7.108;2022-12-29T01:30:33;0.80;;;0.60;;
5465;SDS011;2755;50.728;7.108;2022-12-29T01:32:59;0.70;;;0.47;;
5465;SDS011;2755;50.728;7.108;2022-12-29T01:35:25;0.70;;;0.60;;
5465;SDS011;2755;50.728;7.108;2022-12-29T01:37:51;0.70;;;0.70;;
5465;SDS011;2755;50.728;7.108;2022-12-29T01:40:16;0.80;;;0.53;;
5465;SDS011;2755;50.728;7.108;2022-12-29T01:42:42;0.80;;;0.50;;
5465;SDS011;2755;50.728;7.108;2022-12-29T01:45:11;0.70;;;0.50;;
5465;SDS011;2755;50.728;7.108;2022-12-29T01:47:44;1.00;;;0.60;;
5465;SDS011;2755;50.728;7.108;2022-12-29T01:52:49;0.90;;;0.80;;
5465;SDS011;2755;50.728;7.108;2022-12-29T01:55:21;0.80;;;0.50;;
5465;SDS011;2755;50.728;7.108;2022-12-29T01:57:48;0.70;;;0.57;;
5465;SDS011;2755;50.728;7.108;2022-12-29T02:00:16;1.17;;;0.83;;
5465;SDS011;2755;50.728;7.108;2022-12-29T02:02:43;1.43;;;1.03;;
5465;SDS011;2755;50.728;7.108;2022-12-29T02:05:35;0.90;;;0.80;;
5465;SDS011;2755;50.728;7.108;2022-12-29T02:08:04;2.17;;;0.50;;
5465;SDS011;2755;50.728;7.108;2022-12-29T02:10:31;1.07;;;0.70;;
5465;SDS011;2755;50.728;7.108;2022-12-29T02:12:59;0.80;;;0.60;;
5465;SDS011;2755;50.728;7.108;2022-12-29T02:21:19;0.77;;;0.60;;
5465;SDS011;2755;50.728;7.108;2022-12-29T02:24:31;1.33;;;0.80;;
5465;SDS011;2755;50.728;7.108;2022-12-29T02:40:58;0.90;;;0.60;;
5465;SDS011;2755;50.728;7.108;2022-12-29T02:43:48;0.80;;;0.70;;
5465;SDS011;2755;50.728;7.108;2022-12-29T02:51:33;1.00;;;0.70;;
5465;SDS011;2755;50.728;7.108;2022-12-29T02:54:11;0.83;;;0.80;;
5465;SDS011;2755;50.728;7.108;2022-12-29T02:56:55;1.50;;;0.60;;
5465;SDS011;2755;50.728;7.108;2022-12-29T02:59:21;1.27;;;0.60;;
5465;SDS011;2755;50.728;7.108;2022-12-29T03:02:05;1.47;;;0.93;;
5465;SDS011;2755;50.728;7.108;2022-12-29T03:07:40;0.97;;;0.70;;
5465;SDS011;2755;50.728;7.108;2022-12-29T03:23:45;1.07;;;0.60;;
5465;SDS011;2755;50.728;7.108;2022-12-29T03:26:13;0.70;;;0.60;;
5465;SDS011;2755;50.728;7.108;2022-12-29T03:28:44;1.73;;;0.90;;
5465;SDS011;2755;50.728;7.108;2022-12-29T03:31:15;1.57;;;1.10;;
5465;SDS011;2755;50.728;7.108;2022-12-29T03:33:43;1.17;;;0.90;;
5465;SDS011;2755;50.728;7.108;2022-12-29T03:36:12;0.93;;;0.60;;
5465;SDS011;2755;50.728;7.108;2022-12-29T03:41:13;1.03;;;0.97;;
5465;SDS011;2755;50.728;7.108;2022-12-29T03:43:42;0.70;;;0.70;;
5465;SDS011;2755;50.728;7.108;2022-12-29T03:46:08;1.37;;;0.70;;
5465;SDS011;2755;50.728;7.108;2022-12-29T03:48:33;0.80;;;0.70;;
5465;SDS011;2755;50.728;7.108;2022-12-29T03:50:59;1.50;;;0.80;;
5465;SDS011;2755;50.728;7.108;2022-12-29T03:53:24;1.10;;;1.00;;
5465;SDS011;2755;50.728;7.108;2022-12-29T03:55:50;2.00;;;0.67;;
5465;SDS011;2755;50.728;7.108;2022-12-29T03:58:16;0.90;;;0.70;;
5465;SDS011;2755;50.728;7.108;2022-12-29T04:00:41;1.00;;;0.70;;
5465;SDS011;2755;50.728;7.108;2022-12-29T04:03:07;1.33;;;0.63;;
5465;SDS011;2755;50.728;7.108;2022-12-29T04:05:32;1.00;;;0.60;;
5465;SDS011;2755;50.728;7.108;2022-12-29T04:07:58;1.07;;;0.70;;
5465;SDS011;2755;50.728;7.108;2022-12-29T04:10:25;0.70;;;0.60;;
5465;SDS011;2755;50.728;7.108;2022-12-29T04:12:50;0.70;;;0.53;;
5465;SDS011;2755;50.728;7.108;2022-12-29T04:15:16;1.10;;;0.80;;
5465;SDS011;2755;50.728;7.108;2022-12-29T04:17:41;2.03;;;0.97;;
5465;SDS011;2755;50.728;7.108;2022-12-29T04:20:07;1.07;;;0.77;;
5465;SDS011;2755;50.728;7.108;2022-12-29T04:22:59;0.70;;;0.60;;
5465;SDS011;2755;50.728;7.108;2022-12-29T04:25:25;0.80;;;0.60;;
5465;SDS011;2755;50.728;7.108;2022-12-29T04:27:51;0.70;;;0.60;;
5465;SDS011;2755;50.728;7.108;2022-12-29T04:30:17;0.80;;;0.80;;
5465;SDS011;2755;50.728;7.108;2022-12-29T04:32:42;1.00;;;0.80;;
5465;SDS011;2755;50.728;7.108;2022-12-29T04:35:08;1.17;;;0.80;;
5465;SDS011;2755;50.728;7.108;2022-12-29T04:37:33;1.23;;;1.00;;
5465;SDS011;2755;50.728;7.108;2022-12-29T04:39:59;2.90;;;0.70;;
5465;SDS011;2755;50.728;7.108;2022-12-29T04:42:25;0.80;;;0.70;;
5465;SDS011;2755;50.728;7.108;2022-12-29T04:44:51;0.70;;;0.63;;
5465;SDS011;2755;50.728;7.108;2022-12-29T04:47:16;2.90;;;0.80;;
5465;SDS011;2755;50.728;7.108;2022-12-29T04:49:42;3.63;;;0.60;;
5465;SDS011;2755;50.728;7.108;2022-12-29T04:52:07;0.70;;;0.50;;
5465;SDS011;2755;50.728;7.108;2022-12-29T04:54:33;0.90;;;0.60;;
5465;SDS011;2755;50.728;7.108;2022-12-29T04:56:59;0.70;;;0.60;;
5465;SDS011;2755;50.728;7.108;2022-12-29T04:59:25;2.07;;;0.57;;
5465;SDS011;2755;50.728;7.108;2022-12-29T05:01:50;0.70;;;0.50;;
5465;SDS011;2755;50.728;7.108;2022-12-29T05:04:16;1.63;;;0.83;;
5465;SDS011;2755;50.728;7.108;2022-12-29T05:06:42;1.07;;;0.77;;
5465;SDS011;2755;50.728;7.108;2022-12-29T05:09:07;0.80;;;0.60;;
5465;SDS011;2755;50.728;7.108;2022-12-29T05:11:33;0.90;;;0.70;;
5465;SDS011;2755;50.728;7.108;2022-12-29T05:13:59;0.60;;;0.50;;
5465;SDS011;2755;50.728;7.108;2022-12-29T05:16:25;0.90;;;0.60;;
5465;SDS011;2755;50.728;7.108;2022-12-29T05:18:50;0.60;;;0.50;;
5465;SDS011;2755;50.728;7.108;2022-12-29T05:21:16;1.00;;;0.60;;
5465;SDS011;2755;50.728;7.108;2022-12-29T05:23:41;1.23;;;0.70;;
5465;SDS011;2755;50.728;7.108;2022-12-29T05:26:07;0.80;;;0.60;;
5465;SDS011;2755;50.728;7.108;2022-12-29T05:28:32;0.90;;;0.60;;
5465;SDS011;2755;50.728;7.108;2022-12-29T05:30:58;1.00;;;0.80;;
5465;SDS011;2755;50.728;7.108;2022-12-29T05:33:23;2.23;;;0.70;;
5465;SDS011;2755;50.728;7.108;2022-12-29T05:35:49;0.70;;;0.50;;
5465;SDS011;2755;50.728;7.108;2022-12-29T05:38:15;1.30;;;0.73;;
5465;SDS011;2755;50.728;7.108;2022-12-29T05:40:40;1.53;;;0.63;;
5465;SDS011;2755;50.728;7.108;2022-12-29T05:43:06;1.37;;;0.60;;
5465;SDS011;2755;50.728;7.108;2022-12-29T05:45:31;1.03;;;0.60;;
5465;SDS011;2755;50.728;7.108;2022-12-29T05:47:57;2.00;;;0.70;;
5465;SDS011;2755;50.728;7.108;2022-12-29T05:50:22;1.53;;;1.00;;
5465;SDS011;2755;50.728;7.108;2022-12-29T05:52:48;4.63;;;0.80;;
5465;SDS011;2755;50.728;7.108;2022-12-29T05:55:13;0.97;;;0.73;;
5465;SDS011;2755;50.728;7.108;2022-12-29T05:57:39;0.70;;;0.60;;
5465;SDS011;2755;50.728;7.108;2022-12-29T06:00:05;0.70;;;0.60;;
5465;SDS011;2755;50.728;7.108;2022-12-29T06:02:32;0.90;;;0.70;;
5465;SDS011;2755;50.728;7.108;2022-12-29T06:04:58;1.43;;;0.60;;
5465;SDS011;2755;50.728;7.108;2022-12-29T06:07:23;0.70;;;0.60;;
5465;SDS011;2755;50.728;7.108;2022-12-29T06:09:49;0.80;;;0.50;;
5465;SDS011;2755;50.728;7.108;2022-12-29T06:12:14;1.90;;;0.80;;
5465;SDS011;2755;50.728;7.108;2022-12-29T06:14:42;2.00;;;1.10;;
5465;SDS011;2755;50.728;7.108;2022-12-29T06:17:07;0.90;;;0.80;;
5465;SDS011;2755;50.728;7.108;2022-12-29T06:19:33;0.90;;;0.70;;
5465;SDS011;2755;50.728;7.108;2022-12-29T06:21:59;1.13;;;0.83;;
5465;SDS011;2755;50.728;7.108;2022-12-29T06:24:24;1.13;;;0.73;;
5465;SDS011;2755;50.728;7.108;2022-12-29T06:26:50;0.90;;;0.90;;
5465;SDS011;2755;50.728;7.108;2022-12-29T06:29:15;0.93;;;0.80;;
5465;SDS011;2755;50.728;7.108;2022-12-29T06:31:42;2.97;;;0.90;;
5465;SDS011;2755;50.728;7.108;2022-12-29T06:34:11;1.60;;;0.90;;
5465;SDS011;2755;50.728;7.108;2022-12-29T06:36:38;1.20;;;0.90;;
5465;SDS011;2755;50.728;7.108;2022-12-29T06:39:04;1.30;;;1.10;;
5465;SDS011;2755;50.728;7.108;2022-12-29T06:41:30;2.10;;;0.93;;
5465;SDS011;2755;50.728;7.108;2022-12-29T06:43:55;2.40;;;0.97;;
5465;SDS011;2755;50.728;7.108;2022-12-29T06:46:21;2.40;;;0.90;;
5465;SDS011;2755;50.728;7.108;2022-12-29T06:48:46;2.10;;;1.00;;
5465;SDS011;2755;50.728;7.108;2022-12-29T06:51:12;1.93;;;1.23;;
5465;SDS011;2755;50.728;7.108;2022-12-29T06:53:37;1.20;;;0.60;;
5465;SDS011;2755;50.728;7.108;2022-12-29T06:56:03;2.97;;;1.00;;
5465;SDS011;2755;50.728;7.108;2022-12-29T06:58:29;1.07;;;0.77;;
5465;SDS011;2755;50.728;7.108;2022-12-29T07:00:55;1.10;;;0.90;;
5465;SDS011;2755;50.728;7.108;2022-12-29T07:03:21;0.70;;;0.60;;
5465;SDS011;2755;50.728;7.108;2022-12-29T07:05:46;1.17;;;0.67;;
5465;SDS011;2755;50.728;7.108;2022-12-29T07:08:12;1.20;;;0.70;;
5465;SDS011;2755;50.728;7.108;2022-12-29T07:10:38;0.80;;;0.50;;
5465;SDS011;2755;50.728;7.108;2022-12-29T07:13:05;1.50;;;0.83;;
5465;SDS011;2755;50.728;7.108;2022-12-29T07:15:32;0.73;;;0.70;;
5465;SDS011;2755;50.728;7.108;2022-12-29T07:17:58;1.73;;;0.70;;
5465;SDS011;2755;50.728;7.108;2022-12-29T07:20:24;1.43;;;0.80;;
5465;SDS011;2755;50.728;7.108;2022-12-29T07:22:50;1.10;;;0.80;;
5465;SDS011;2755;50.728;7.108;2022-12-29T07:25:16;0.70;;;0.60;;
5465;SDS011;2755;50.728;7.108;2022-12-29T07:27:42;0.63;;;0.60;;
5465;SDS011;2755;50.728;7.108;2022-12-29T07:30:07;1.00;;;0.57;;
5465;SDS011;2755;50.728;7.108;2022-12-29T07:32:34;1.57;;;0.53;;
5465;SDS011;2755;50.728;7.108;2022-12-29T07:34:59;1.23;;;0.60;;
5465;SDS011;2755;50.728;7.108;2022-12-29T07:37:25;0.80;;;0.60;;
5465;SDS011;2755;50.728;7.108;2022-12-29T07:39:51;1.53;;;0.70;;
5465;SDS011;2755;50.728;7.108;2022-12-29T07:42:17;1.60;;;0.60;;
5465;SDS011;2755;50.728;7.108;2022-12-29T07:44:42;2.70;;;1.23;;
5465;SDS011;2755;50.728;7.108;2022-12-29T07:47:08;2.20;;;0.73;;
5465;SDS011;2755;50.728;7.108;2022-12-29T07:49:33;1.53;;;0.60;;
5465;SDS011;2755;50.728;7.108;2022-12-29T07:51:59;1.83;;;0.67;;
5465;SDS011;2755;50.728;7.108;2022-12-29T07:54:24;2.40;;;0.70;;
5465;SDS011;2755;50.728;7.108;2022-12-29T07:56:50;2.70;;;0.70;;
5465;SDS011;2755;50.728;7.108;2022-12-29T07:59:16;1.20;;;0.83;;
5465;SDS011;2755;50.728;7.108;2022-12-29T08:01:41;1.37;;;0.73;;
5465;SDS011;2755;50.728;7.108;2022-12-29T08:04:07;1.40;;;1.00;;
5465;SDS011;2755;50.728;7.108;2022-12-29T08:06:33;0.90;;;0.50;;
5465;SDS011;2755;50.728;7.108;2022-12-29T08:08:59;1.43;;;1.00;;
5465;SDS011;2755;50.728;7.108;2022-12-29T08:11:26;1.27;;;0.53;;
5465;SDS011;2755;50.728;7.108;2022-12-29T08:13:52;3.33;;;0.93;;
5465;SDS011;2755;50.728;7.108;2022-12-29T08:16:17;1.10;;;0.70;;
5465;SDS011;2755;50.728;7.108;2022-12-29T08:18:43;1.43;;;0.77;;
5465;SDS011;2755;50.728;7.108;2022-12-29T08:21:09;1.83;;;0.73;;
5465;SDS011;2755;50.728;7.108;2022-12-29T08:23:34;2.77;;;0.70;;
5465;SDS011;2755;50.728;7.108;2022-12-29T08:26:01;3.90;;;0.83;;
5465;SDS011;2755;50.728;7.108;2022-12-29T08:28:28;1.60;;;0.80;;
5465;SDS011;2755;50.728;7.108;2022-12-29T08:30:57;2.30;;;0.90;;
5465;SDS011;2755;50.728;7.108;2022-12-29T08:33:23;4.73;;;0.93;;
5465;SDS011;2755;50.728;7.108;2022-12-29T08:35:49;0.80;;;0.80;;
5465;SDS011;2755;50.728;7.108;2022-12-29T08:38:14;2.03;;;0.80;;
5465;SDS011;2755;50.728;7.108;2022-12-29T08:40:40;1.03;;;0.70;;
5465;SDS011;2755;50.728;7.108;2022-12-29T08:43:06;2.83;;;0.63;;
5465;SDS011;2755;50.728;7.108;2022-12-29T08:45:31;4.70;;;0.90;;
5465;SDS011;2755;50.728;7.108;2022-12-29T08:47:57;3.93;;;1.00;;
5465;SDS011;2755;50.728;7.108;2022-12-29T08:50:22;4.33;;;1.00;;
5465;SDS011;2755;50.728;7.108;2022-12-29T08:52:48;3.03;;;0.87;;
5465;SDS011;2755;50.728;7.108;2022-12-29T08:55:13;2.20;;;1.00;;
5465;SDS011;2755;50.728;7.108;2022-12-29T08:57:39;2.80;;;0.90;;
5465;SDS011;2755;50.728;7.108;2022-12-29T09:00:05;2.33;;;1.03;;
5465;SDS011;2755;50.728;7.108;2022-12-29T09:02:31;1.10;;;0.90;;
5465;SDS011;2755;50.728;7.108;2022-12-29T09:04:57;0.87;;;0.70;;
5465;SDS011;2755;50.728;7.108;2022-12-29T09:07:23;4.43;;;0.90;;
5465;SDS011;2755;50.728;7.108;2022-12-29T09:09:49;3.20;;;0.87;;
5465;SDS011;2755;50.728;7.108;2022-12-29T09:12:15;5.50;;;1.03;;
5465;SDS011;2755;50.728;7.108;2022-12-29T09:14:42;3.30;;;0.87;;
5465;SDS011;2755;50.728;7.108;2022-12-29T09:17:09;2.90;;;0.80;;
5465;SDS011;2755;50.728;7.108;2022-12-29T09:19:53;2.77;;;1.07;;
5465;SDS011;2755;50.728;7.108;2022-12-29T09:22:19;3.87;;;1.10;;
5465;SDS011;2755;50.728;7.108;2022-12-29T09:24:45;2.30;;;1.00;;
5465;SDS011;2755;50.728;7.108;2022-12-29T09:27:11;2.33;;;1.00;;
5465;SDS011;2755;50.728;7.108;2022-12-29T09:29:36;4.10;;;1.07;;
5465;SDS011;2755;50.728;7.108;2022-12-29T09:32:02;5.23;;;1.00;;
5465;SDS011;2755;50.728;7.108;2022-12-29T09:34:28;4.53;;;1.27;;
5465;SDS011;2755;50.728;7.108;2022-12-29T09:36:53;4.47;;;1.13;;
5465;SDS011;2755;50.728;7.108;2022-12-29T09:39:21;2.40;;;0.80;;
5465;SDS011;2755;50.728;7.108;2022-12-29T09:46:50;3.37;;;1.00;;
5465;SDS011;2755;50.728;7.108;2022-12-29T09:52:05;5.43;;;1.03;;
5465;SDS011;2755;50.728;7.108;2022-12-29T09:54:55;6.33;;;1.40;;
5465;SDS011;2755;50.728;7.108;2022-12-29T09:57:26;1.93;;;1.07;;
5465;SDS011;2755;50.728;7.108;2022-12-29T10:00:16;5.97;;;0.90;;
5465;SDS011;2755;50.728;7.108;2022-12-29T10:02:46;3.27;;;1.33;;
5465;SDS011;2755;50.728;7.108;2022-12-29T10:07:50;6.30;;;1.03;;
5465;SDS011;2755;50.728;7.108;2022-12-29T10:13:33;2.47;;;0.80;;
5465;SDS011;2755;50.728;7.108;2022-12-29T10:16:15;7.43;;;0.97;;
5465;SDS011;2755;50.728;7.108;2022-12-29T10:21:33;2.93;;;0.80;;
5465;SDS011;2755;50.728;7.108;2022-12-29T10:24:22;6.43;;;1.20;;
5465;SDS011;2755;50.728;7.108;2022-12-29T10:26:50;3.50;;;1.10;;
5465;SDS011;2755;50.728;7.108;2022-12-29T10:29:18;1.67;;;0.63;;
5465;SDS011;2755;50.728;7.108;2022-12-29T10:31:57;4.40;;;1.03;;
5465;SDS011;2755;50.728;7.108;2022-12-29T10:34:29;6.10;;;1.20;;
5465;SDS011;2755;50.728;7.108;2022-12-29T10:37:03;2.50;;;1.17;;
5465;SDS011;2755;50.728;7.108;2022-12-29T10:39:51;3.87;;;1.03;;
5465;SDS011;2755;50.728;7.108;2022-12-29T10:42:25;9.00;;;1.43;;
5465;SDS011;2755;50.728;7.108;2022-12-29T10:45:02;8.30;;;1.17;;
5465;SDS011;2755;50.728;7.108;2022-12-29T10:47:31;1.70;;;0.80;;
5465;SDS011;2755;50.728;7.108;2022-12-29T10:50:00;3.30;;;1.30;;
5465;SDS011;2755;50.728;7.108;2022-12-29T10:52:27;4.00;;;1.00;;
5465;SDS011;2755;50.728;7.108;2022-12-29T10:54:55;5.40;;;1.03;;
5465;SDS011;2755;50.728;7.108;2022-12-29T11:00:01;5.37;;;1.00;;
5465;SDS011;2755;50.728;7.108;2022-12-29T11:07:46;7.10;;;2.20;;
5465;SDS011;2755;50.728;7.108;2022-12-29T11:13:01;6.90;;;0.97;;
5465;SDS011;2755;50.728;7.108;2022-12-29T11:15:38;5.83;;;1.73;;
5465;SDS011;2755;50.728;7.108;2022-12-29T11:18:47;1.70;;;0.80;;
5465;SDS011;2755;50.728;7.108;2022-12-29T11:23:56;3.00;;;0.80;;
5465;SDS011;2755;50.728;7.108;2022-12-29T11:26:24;1.83;;;0.97;;
5465;SDS011;2755;50.728;7.108;2022-12-29T11:31:48;3.30;;;0.90;;
5465;SDS011;2755;50.728;7.108;2022-12-29T11:34:16;6.30;;;1.00;;
5465;SDS011;2755;50.728;7.108;2022-12-29T11:37:06;3.53;;;1.10;;
5465;SDS011;2755;50.728;7.108;2022-12-29T11:39:38;4.67;;;1.30;;
5465;SDS011;2755;50.728;7.108;2022-12-29T11:42:47;4.50;;;1.40;;
5465;SDS011;2755;50.728;7.108;2022-12-29T11:45:17;6.67;;;1.33;;
5465;SDS011;2755;50.728;7.108;2022-12-29T11:47:55;4.23;;;1.20;;
5465;SDS011;2755;50.728;7.108;2022-12-29T11:50:27;4.50;;;1.97;;
5465;SDS011;2755;50.728;7.108;2022-12-29T11:52:58;3.87;;;1.30;;
5465;SDS011;2755;50.728;7.108;2022-12-29T11:55:30;5.77;;;1.40;;
5465;SDS011;2755;50.728;7.108;2022-12-29T11:57:57;8.73;;;1.20;;
5465;SDS011;2755;50.728;7.108;2022-12-29T12:00:26;4.70;;;1.00;;
5465;SDS011;2755;50.728;7.108;2022-12-29T12:02:58;3.63;;;1.10;;
5465;SDS011;2755;50.728;7.108;2022-12-29T12:05:42;6.17;;;0.80;;
5465;SDS011;2755;50.728;7.108;2022-12-29T12:13:47;8.37;;;1.10;;
5465;SDS011;2755;50.728;7.108;2022-12-29T12:16:22;7.53;;;1.30;;
5465;SDS011;2755;50.728;7.108;2022-12-29T12:18:55;3.97;;;1.50;;
5465;SDS011;2755;50.728;7.108;2022-12-29T12:29:52;4.40;;;1.37;;
5465;SDS011;2755;50.728;7.108;2022-12-29T12:41:04;2.53;;;1.13;;
5465;SDS011;2755;50.728;7.108;2022-12-29T12:43:37;5.97;;;1.00;;
5465;SDS011;2755;50.728;7.108;2022-12-29T12:51:57;3.50;;;1.07;;
5465;SDS011;2755;50.728;7.108;2022-12-29T12:54:40;4.00;;;1.37;;
5465;SDS011;2755;50.728;7.108;2022-12-29T13:02:54;6.13;;;1.33;;
5465;SDS011;2755;50.728;7.108;2022-12-29T13:14:07;6.53;;;1.30;;
5465;SDS011;2755;50.728;7.108;2022-12-29T13:19:30;4.30;;;0.80;;
5465;SDS011;2755;50.728;7.108;2022-12-29T13:28:10;4.10;;;1.50;;
5465;SDS011;2755;50.728;7.108;2022-12-29T13:30:58;3.43;;;0.87;;
5465;SDS011;2755;50.728;7.108;2022-12-29T13:36:08;6.70;;;1.33;;
5465;SDS011;2755;50.728;7.108;2022-12-29T13:41:18;7.63;;;1.60;;
5465;SDS011;2755;50.728;7.108;2022-12-29T13:44:18;4.20;;;1.27;;
5465;SDS011;2755;50.728;7.108;2022-12-29T13:46:56;7.10;;;1.10;;
5465;SDS011;2755;50.728;7.108;2022-12-29T13:49:25;3.10;;;0.90;;
5465;SDS011;2755;50.728;7.108;2022-12-29T13:51:52;4.20;;;1.10;;
5465;SDS011;2755;50.728;7.108;2022-12-29T13:57:10;5.43;;;1.03;;
5465;SDS011;2755;50.728;7.108;2022-12-29T14:00:16;2.60;;;1.27;;
5465;SDS011;2755;50.728;7.108;2022-12-29T14:07:47;6.23;;;1.17;;
5465;SDS011;2755;50.728;7.108;2022-12-29T14:13:22;7.03;;;1.70;;
5465;SDS011;2755;50.728;7.108;2022-12-29T14:15:50;3.60;;;1.10;;
5465;SDS011;2755;50.728;7.108;2022-12-29T14:18:23;12.83;;;1.10;;
5465;SDS011;2755;50.728;7.108;2022-12-29T14:21:01;4.33;;;1.50;;
5465;SDS011;2755;50.728;7.108;2022-12-29T14:23:39;3.93;;;1.20;;
5465;SDS011;2755;50.728;7.108;2022-12-29T14:28:46;5.83;;;1.20;;
5465;SDS011;2755;50.728;7.108;2022-12-29T14:34:28;9.20;;;1.53;;
5465;SDS011;2755;50.728;7.108;2022-12-29T14:36:37;5.77;;;1.43;;
5465;SDS011;2755;50.728;7.108;2022-12-29T14:42:03;7.03;;;1.00;;
5465;SDS011;2755;50.728;7.108;2022-12-29T14:44:49;6.03;;;1.40;;
5465;SDS011;2755;50.728;7.108;2022-12-29T14:57:44;12.10;;;2.13;;
5465;SDS011;2755;50.728;7.108;2022-12-29T15:00:16;7.10;;;1.80;;
5465;SDS011;2755;50.728;7.108;2022-12-29T15:02:59;8.43;;;1.30;;
5465;SDS011;2755;50.728;7.108;2022-12-29T15:05:34;5.40;;;1.60;;
5465;SDS011;2755;50.728;7.108;2022-12-29T15:08:07;8.00;;;1.20;;
5465;SDS011;2755;50.728;7.108;2022-12-29T15:10:40;6.07;;;1.30;;
5465;SDS011;2755;50.728;7.108;2022-12-29T15:13:22;7.27;;;1.73;;
5465;SDS011;2755;50.728;7.108;2022-12-29T15:15:57;7.20;;;1.33;;
5465;SDS011;2755;50.728;7.108;2022-12-29T15:18:24;5.10;;;1.60;;
5465;SDS011;2755;50.728;7.108;2022-12-29T15:20:52;13.20;;;1.40;;
5465;SDS011;2755;50.728;7.108;2022-12-29T15:23:23;4.77;;;2.03;;
5465;SDS011;2755;50.728;7.108;2022-12-29T15:25:52;6.50;;;1.30;;
5465;SDS011;2755;50.728;7.108;2022-12-29T15:28:24;5.93;;;1.20;;
5465;SDS011;2755;50.728;7.108;2022-12-29T15:31:36;5.10;;;1.43;;
5465;SDS011;2755;50.728;7.108;2022-12-29T15:33:42;6.90;;;1.23;;
5465;SDS011;2755;50.728;7.108;2022-12-29T15:36:10;4.17;;;1.30;;
5465;SDS011;2755;50.728;7.108;2022-12-29T15:38:38;6.40;;;1.47;;
5465;SDS011;2755;50.728;7.108;2022-12-29T15:41:29;3.80;;;1.07;;
5465;SDS011;2755;50.728;7.108;2022-12-29T15:47:04;3.87;;;1.40;;
5465;SDS011;2755;50.728;7.108;2022-12-29T15:49:31;4.80;;;1.30;;
5465;SDS011;2755;50.728;7.108;2022-12-29T15:51:58;5.13;;;1.33;;
5465;SDS011;2755;50.728;7.108;2022-12-29T15:54:24;4.40;;;1.10;;
5465;SDS011;2755;50.728;7.108;2022-12-29T15:56:52;3.37;;;1.27;;
5465;SDS011;2755;50.728;7.108;2022-12-29T16:01:58;8.13;;;1.63;;
5465;SDS011;2755;50.728;7.108;2022-12-29T16:04:29;3.03;;;1.37;;
5465;SDS011;2755;50.728;7.108;2022-12-29T16:07:01;6.37;;;2.30;;
5465;SDS011;2755;50.728;7.108;2022-12-29T16:09:29;7.87;;;2.00;;
5465;SDS011;2755;50.728;7.108;2022-12-29T16:12:03;4.77;;;1.70;;
5465;SDS011;2755;50.728;7.108;2022-12-29T16:14:34;4.20;;;1.30;;
5465;SDS011;2755;50.728;7.108;2022-12-29T16:17:06;2.87;;;1.57;;
5465;SDS011;2755;50.728;7.108;2022-12-29T16:19:36;4.17;;;1.30;;
5465;SDS011;2755;50.728;7.108;2022-12-29T16:22:09;5.00;;;1.77;;
5465;SDS011;2755;50.728;7.108;2022-12-29T16:24:36;3.57;;;1.23;;
5465;SDS011;2755;50.728;7.108;2022-12-29T16:29:30;6.17;;;1.63;;
5465;SDS011;2755;50.728;7.108;2022-12-29T16:31:57;5.60;;;1.80;;
5465;SDS011;2755;50.728;7.108;2022-12-29T16:39:34;5.63;;;1.63;;
5465;SDS011;2755;50.728;7.108;2022-12-29T16:50:39;5.73;;;1.67;;
5465;SDS011;2755;50.728;7.108;2022-12-29T16:53:15;7.80;;;1.70;;
5465;SDS011;2755;50.728;7.108;2022-12-29T16:55:51;7.13;;;1.47;;
5465;SDS011;2755;50.728;7.108;2022-12-29T16:58:19;7.63;;;1.50;;
5465;SDS011;2755;50.728;7.108;2022-12-29T17:00:46;8.17;;;2.20;;
5465;SDS011;2755;50.728;7.108;2022-12-29T17:03:12;4.40;;;1.67;;
5465;SDS011;2755;50.728;7.108;2022-12-29T17:05:39;16.33;;;2.83;;
5465;SDS011;2755;50.728;7.108;2022-12-29T17:08:25;5.43;;;1.77;;
5465;SDS011;2755;50.728;7.108;2022-12-29T17:10:50;5.67;;;2.00;;
5465;SDS011;2755;50.728;7.108;2022-12-29T17:13:37;11.20;;;2.50;;
5465;SDS011;2755;50.728;7.108;2022-12-29T17:16:04;7.63;;;2.10;;
5465;SDS011;2755;50.728;7.108;2022-12-29T17:18:32;5.77;;;1.77;;
5465;SDS011;2755;50.728;7.108;2022-12-29T17:20:58;8.63;;;1.67;;
5465;SDS011;2755;50.728;7.108;2022-12-29T17:23:24;6.90;;;2.53;;
5465;SDS011;2755;50.728;7.108;2022-12-29T17:25:50;10.90;;;2.03;;
5465;SDS011;2755;50.728;7.108;2022-12-29T17:28:21;9.07;;;2.70;;
5465;SDS011;2755;50.728;7.108;2022-12-29T17:30:49;6.93;;;1.90;;
5465;SDS011;2755;50.728;7.108;2022-12-29T17:33:16;19.70;;;2.27;;
5465;SDS011;2755;50.728;7.108;2022-12-29T17:35:43;5.70;;;2.07;;
5465;SDS011;2755;50.728;7.108;2022-12-29T17:38:16;13.63;;;1.90;;
5465;SDS011;2755;50.728;7.108;2022-12-29T17:40:43;8.70;;;2.20;;
5465;SDS011;2755;50.728;7.108;2022-12-29T17:43:10;7.63;;;2.23;;
5465;SDS011;2755;50.728;7.108;2022-12-29T17:45:39;7.17;;;1.87;;
5465;SDS011;2755;50.728;7.108;2022-12-29T17:48:12;7.47;;;2.10;;
5465;SDS011;2755;50.728;7.108;2022-12-29T17:50:40;9.20;;;2.03;;
5465;SDS011;2755;50.728;7.108;2022-12-29T17:53:09;9.60;;;2.13;;
5465;SDS011;2755;50.728;7.108;2022-12-29T17:55:38;11.70;;;2.17;;
5465;SDS011;2755;50.728;7.108;2022-12-29T18:00:49;7.07;;;2.30;;
5465;SDS011;2755;50.728;7.108;2022-12-29T18:03:17;13.67;;;2.50;;
5465;SDS011;2755;50.728;7.108;2022-12-29T18:05:44;8.80;;;2.17;;
5465;SDS011;2755;50.728;7.108;2022-12-29T18:08:11;10.63;;;2.10;;
5465;SDS011;2755;50.728;7.108;2022-12-29T18:10:37;9.20;;;2.23;;
5465;SDS011;2755;50.728;7.108;2022-12-29T18:13:04;14.77;;;2.60;;
5465;SDS011;2755;50.728;7.108;2022-12-29T18:15:31;8.03;;;3.07;;
5465;SDS011;2755;50.728;7.108;2022-12-29T18:20:26;7.70;;;2.10;;
5465;SDS011;2755;50.728;7.108;2022-12-29T18:22:53;5.57;;;2.30;;
5465;SDS011;2755;50.728;7.108;2022-12-29T18:25:41;5.10;;;2.00;;
5465;SDS011;2755;50.728;7.108;2022-12-29T18:28:10;11.73;;;2.30;;
5465;SDS011;2755;50.728;7.108;2022-12-29T18:30:36;10.80;;;2.40;;
5465;SDS011;2755;50.728;7.108;2022-12-29T18:33:02;9.23;;;2.50;;
5465;SDS011;2755;50.728;7.108;2022-12-29T18:35:29;9.17;;;1.97;;
5465;SDS011;2755;50.728;7.108;2022-12-29T18:37:57;11.17;;;2.20;;
5465;SDS011;2755;50.728;7.108;2022-12-29T18:40:23;10.40;;;2.13;;
5465;SDS011;2755;50.728;7.108;2022-12-29T18:42:48;7.07;;;3.00;;
5465;SDS011;2755;50.728;7.108;2022-12-29T18:45:14;6.37;;;2.87;;
5465;SDS011;2755;50.728;7.108;2022-12-29T18:47:44;5.53;;;1.83;;
5465;SDS011;2755;50.728;7.108;2022-12-29T18:50:10;9.30;;;2.67;;